createdAt,value
2022-11-23T00:01:36.979Z,39.10
2022-11-23T00:04:07.213Z,43.30
2022-11-23T00:09:04.531Z,43.10
2022-11-23T00:11:35.746Z,42.65
2022-11-23T00:14:04.771Z,43.90
2022-11-23T00:16:34.522Z,41.60
2022-11-23T00:19:03.679Z,39.92
2022-11-23T00:21:33.889Z,40.65
2022-11-23T00:26:31.157Z,41.95
2022-11-23T00:29:00.227Z,42.90
2022-11-23T00:31:29.078Z,41.25
2022-11-23T00:33:59.491Z,43.05
2022-11-23T00:36:29.271Z,42.13
2022-11-23T00:38:58.910Z,40.65
2022-11-23T00:41:28.999Z,44.08
2022-11-23T00:43:57.504Z,39.90
2022-11-23T00:46:27.377Z,41.42
2022-11-23T00:48:58.543Z,39.17
2022-11-23T00:51:29.777Z,40.50
2022-11-23T00:53:59.744Z,41.85
2022-11-23T00:56:29.508Z,39.78
2022-11-23T00:58:59.531Z,38.35
2022-11-23T01:01:30.874Z,31.25
2022-11-23T01:04:02.840Z,39.42
2022-11-23T01:06:33.316Z,42.65
2022-11-23T01:09:03.667Z,40.80
2022-11-23T01:11:33.414Z,42.92
2022-11-23T01:14:03.109Z,42.35
2022-11-23T01:16:32.882Z,33.45
2022-11-23T01:19:04.966Z,41.17
2022-11-23T01:21:34.711Z,40.05
2022-11-23T01:24:08.736Z,41.72
2022-11-23T01:26:40.365Z,41.85
2022-11-23T01:29:09.279Z,40.30
2022-11-23T01:31:46.091Z,39.03
2022-11-23T01:34:19.737Z,41.33
2022-11-23T01:39:17.005Z,39.33
2022-11-23T01:41:46.552Z,37.92
2022-11-23T01:44:26.314Z,39.60
2022-11-23T01:49:25.863Z,37.08
2022-11-23T01:51:56.531Z,37.60
2022-11-23T01:54:28.423Z,37.55
2022-11-23T01:56:59.866Z,37.65
2022-11-23T01:59:30.443Z,35.97
2022-11-23T02:02:00.779Z,35.30
2022-11-23T02:04:33.353Z,36.08
2022-11-23T02:07:03.127Z,34.80
2022-11-23T02:09:33.224Z,32.80
2022-11-23T02:12:02.386Z,34.60
2022-11-23T02:14:31.539Z,35.75
2022-11-23T02:17:00.581Z,35.15
2022-11-23T02:19:37.812Z,31.15
2022-11-23T02:22:07.735Z,35.90
2022-11-23T02:24:40.251Z,28.95
2022-11-23T02:27:14.766Z,36.65
2022-11-23T02:29:43.620Z,37.53
2022-11-23T02:32:12.304Z,35.25
2022-11-23T02:34:40.619Z,26.15
2022-11-23T02:37:10.055Z,37.17
2022-11-23T02:39:40.021Z,35.92
2022-11-23T02:42:08.840Z,27.60
2022-11-23T02:44:44.083Z,35.00
2022-11-23T02:47:14.560Z,35.45
2022-11-23T02:49:43.847Z,30.85
2022-11-23T02:52:12.481Z,36.60
2022-11-23T02:54:41.392Z,25.20
2022-11-23T02:57:10.232Z,36.67
2022-11-23T02:59:42.537Z,32.35
2022-11-23T03:02:11.355Z,35.50
2022-11-23T03:04:39.619Z,34.85
2022-11-23T03:07:09.132Z,32.95
2022-11-23T03:09:37.980Z,36.08
2022-11-23T03:12:08.177Z,30.48
2022-11-23T03:14:38.800Z,33.67
2022-11-23T03:17:09.089Z,31.60
2022-11-23T03:19:42.781Z,33.33
2022-11-23T03:22:13.056Z,32.83
2022-11-23T03:24:41.828Z,33.63
2022-11-23T03:27:14.807Z,32.10
2022-11-23T03:29:44.646Z,30.13
2022-11-23T03:32:20.091Z,33.97
2022-11-23T03:34:51.929Z,33.60
2022-11-23T03:37:22.284Z,30.33
2022-11-23T03:39:50.963Z,32.95
2022-11-23T03:42:45.653Z,32.33
2022-11-23T03:45:14.387Z,32.40
2022-11-23T03:47:45.380Z,35.40
2022-11-23T03:50:14.926Z,29.70
2022-11-23T03:52:44.155Z,32.07
2022-11-23T03:55:16.761Z,29.15
2022-11-23T03:57:45.435Z,27.55
2022-11-23T04:00:15.211Z,31.85
2022-11-23T04:02:47.473Z,31.65
2022-11-23T04:08:33.844Z,28.15
2022-11-23T04:11:02.604Z,30.90
2022-11-23T04:13:38.776Z,27.13
2022-11-23T04:16:08.397Z,28.27
2022-11-23T04:18:38.886Z,29.50
2022-11-23T04:21:07.607Z,29.05
2022-11-23T04:23:36.626Z,30.63
2022-11-23T04:26:07.304Z,27.55
2022-11-23T04:28:36.482Z,29.50
2022-11-23T04:31:05.338Z,30.30
2022-11-23T04:33:45.368Z,25.20
2022-11-23T04:36:16.321Z,27.25
2022-11-23T04:38:45.088Z,26.95
2022-11-23T04:41:17.484Z,26.60
2022-11-23T04:43:46.300Z,28.65
2022-11-23T04:46:15.227Z,27.88
2022-11-23T04:48:47.260Z,27.80
2022-11-23T04:51:18.169Z,26.85
2022-11-23T04:53:47.531Z,29.40
2022-11-23T04:56:16.277Z,28.55
2022-11-23T04:58:45.404Z,27.38
2022-11-23T05:01:14.228Z,27.65
2022-11-23T05:04:04.597Z,27.15
2022-11-23T05:09:01.831Z,24.13
2022-11-23T05:11:43.131Z,23.77
2022-11-23T05:14:12.789Z,22.85
2022-11-23T05:16:41.671Z,25.65
2022-11-23T05:19:12.509Z,26.00
2022-11-23T05:21:41.268Z,23.45
2022-11-23T05:24:10.124Z,24.45
2022-11-23T05:26:44.907Z,23.25
2022-11-23T05:29:13.744Z,25.80
2022-11-23T05:31:42.336Z,27.35
2022-11-23T05:34:12.651Z,25.02
2022-11-23T05:36:47.683Z,26.60
2022-11-23T05:39:17.448Z,27.02
2022-11-23T05:41:46.882Z,24.10
2022-11-23T05:44:30.293Z,25.20
2022-11-23T05:46:59.795Z,25.27
2022-11-23T05:49:32.742Z,24.98
2022-11-23T05:52:02.990Z,24.35
2022-11-23T05:54:32.920Z,25.65
2022-11-23T05:57:15.899Z,22.77
2022-11-23T05:59:46.299Z,25.08
2022-11-23T06:02:21.904Z,25.35
2022-11-23T06:04:56.058Z,24.65
2022-11-23T06:07:37.098Z,23.95
2022-11-23T06:10:14.862Z,24.75
2022-11-23T06:12:50.094Z,23.85
2022-11-23T06:15:20.444Z,25.70
2022-11-23T06:17:50.020Z,24.85
2022-11-23T06:20:23.704Z,25.05
2022-11-23T06:23:03.551Z,24.23
2022-11-23T06:25:32.222Z,23.70
2022-11-23T06:28:06.942Z,25.75
2022-11-23T06:30:43.863Z,25.58
2022-11-23T06:33:13.969Z,26.88
2022-11-23T06:35:55.553Z,24.73
2022-11-23T06:38:26.085Z,24.90
2022-11-23T06:41:08.078Z,24.98
2022-11-23T06:43:36.921Z,25.58
2022-11-23T06:46:06.948Z,23.23
2022-11-23T06:48:39.569Z,26.63
2022-11-23T06:51:12.297Z,25.88
2022-11-23T06:53:41.258Z,22.52
2022-11-23T06:58:40.395Z,21.40
2022-11-23T07:01:13.995Z,21.58
2022-11-23T07:03:49.123Z,23.10
2022-11-23T07:06:29.233Z,22.98
2022-11-23T07:09:02.959Z,21.95
2022-11-23T07:11:46.969Z,24.55
2022-11-23T07:14:18.160Z,25.08
2022-11-23T07:16:49.031Z,21.98
2022-11-23T07:19:17.911Z,26.70
2022-11-23T07:21:49.510Z,24.63
2022-11-23T07:24:19.062Z,25.17
2022-11-23T07:26:47.721Z,19.05
2022-11-23T07:29:16.444Z,25.77
2022-11-23T07:31:44.737Z,25.85
2022-11-23T07:34:13.594Z,25.05
2022-11-23T07:39:14.525Z,23.25
2022-11-23T07:41:43.396Z,24.20
2022-11-23T07:44:23.253Z,22.75
2022-11-23T07:46:54.637Z,23.63
2022-11-23T07:49:23.483Z,21.75
2022-11-23T07:51:53.780Z,21.63
2022-11-23T07:56:52.875Z,23.50
2022-11-23T07:59:21.604Z,23.20
2022-11-23T08:01:54.287Z,24.02
2022-11-23T08:04:26.964Z,24.67
2022-11-23T08:06:55.749Z,23.33
2022-11-23T08:09:25.831Z,23.23
2022-11-23T08:11:54.520Z,24.52
2022-11-23T08:14:23.867Z,23.75
2022-11-23T08:16:52.662Z,23.42
2022-11-23T08:19:21.317Z,23.30
2022-11-23T08:21:50.076Z,24.23
2022-11-23T08:24:18.661Z,23.65
2022-11-23T08:26:48.820Z,22.63
2022-11-23T08:29:17.598Z,23.13
2022-11-23T08:31:45.858Z,23.40
2022-11-23T08:34:15.340Z,21.75
2022-11-23T08:36:44.031Z,23.10
2022-11-23T08:39:14.878Z,22.35
2022-11-23T08:41:43.816Z,21.33
2022-11-23T08:44:14.187Z,21.95
2022-11-23T08:46:42.572Z,24.08
2022-11-23T08:49:11.302Z,21.73
2022-11-23T08:51:40.008Z,24.05
2022-11-23T08:54:09.397Z,18.27
2022-11-23T08:56:38.339Z,22.88
2022-11-23T08:59:07.100Z,24.15
2022-11-23T09:01:37.054Z,21.25
2022-11-23T09:04:06.095Z,23.33
2022-11-23T09:06:34.988Z,22.77
2022-11-23T09:09:03.916Z,21.33
2022-11-23T09:11:32.636Z,21.65
2022-11-23T09:14:01.336Z,20.60
2022-11-23T09:16:33.696Z,21.88
2022-11-23T09:19:04.321Z,21.35
2022-11-23T09:21:35.840Z,21.42
2022-11-23T09:24:04.816Z,21.90
2022-11-23T09:26:34.321Z,21.45
2022-11-23T09:29:03.003Z,22.58
2022-11-23T09:31:31.305Z,22.38
2022-11-23T09:34:00.196Z,21.77
2022-11-23T09:36:30.213Z,24.02
2022-11-23T09:38:59.004Z,20.75
2022-11-23T09:41:50.761Z,21.77
2022-11-23T09:44:24.791Z,23.80
2022-11-23T09:47:05.468Z,22.75
2022-11-23T09:49:39.054Z,21.60
2022-11-23T09:52:16.881Z,21.92
2022-11-23T09:54:47.342Z,21.13
2022-11-23T09:57:19.380Z,22.58
2022-11-23T09:59:52.109Z,22.83
2022-11-23T10:02:23.647Z,19.05
2022-11-23T10:04:53.406Z,19.98
2022-11-23T10:07:36.851Z,18.83
2022-11-23T10:10:12.353Z,16.27
2022-11-23T10:12:48.535Z,21.00
2022-11-23T10:15:21.943Z,19.42
2022-11-23T10:18:06.863Z,20.02
2022-11-23T10:20:44.378Z,19.20
2022-11-23T10:23:19.685Z,21.20
2022-11-23T10:25:50.248Z,20.05
2022-11-23T10:28:20.844Z,19.15
2022-11-23T10:30:55.355Z,19.67
2022-11-23T10:33:30.042Z,20.23
2022-11-23T10:35:58.805Z,19.55
2022-11-23T10:38:29.652Z,19.30
2022-11-23T10:41:03.628Z,20.90
2022-11-23T10:43:36.622Z,20.83
2022-11-23T10:46:26.589Z,19.50
2022-11-23T10:48:56.028Z,20.67
2022-11-23T10:51:29.607Z,20.30
2022-11-23T10:54:05.388Z,21.35
2022-11-23T10:56:35.358Z,20.98
2022-11-23T10:59:04.038Z,15.20
2022-11-23T11:01:32.393Z,21.00
2022-11-23T11:04:04.188Z,20.15
2022-11-23T11:06:36.341Z,20.77
2022-11-23T11:09:13.321Z,19.80
2022-11-23T11:11:47.437Z,20.08
2022-11-23T11:14:17.460Z,21.33
2022-11-23T11:16:49.595Z,21.42
2022-11-23T11:19:28.548Z,22.00
2022-11-23T11:21:57.822Z,21.52
2022-11-23T11:24:33.302Z,21.73
2022-11-23T11:27:04.329Z,21.30
2022-11-23T11:29:39.133Z,20.85
2022-11-23T11:32:11.851Z,20.77
2022-11-23T11:34:44.166Z,22.45
2022-11-23T11:37:16.522Z,20.75
2022-11-23T11:39:50.095Z,23.20
2022-11-23T11:42:21.440Z,21.20
2022-11-23T11:44:52.447Z,21.13
2022-11-23T11:47:29.357Z,21.58
2022-11-23T11:49:59.593Z,20.20
2022-11-23T11:52:33.396Z,22.42
2022-11-23T11:55:08.705Z,22.83
2022-11-23T11:57:40.700Z,21.63
2022-11-23T12:00:15.400Z,21.40
2022-11-23T12:02:51.343Z,22.33
2022-11-23T12:05:25.476Z,20.98
2022-11-23T12:08:01.452Z,23.25
2022-11-23T12:10:35.531Z,23.55
2022-11-23T12:13:04.380Z,23.52
2022-11-23T12:15:51.307Z,22.67
2022-11-23T12:18:49.544Z,23.58
2022-11-23T12:21:40.797Z,24.08
2022-11-23T12:24:17.317Z,22.90
2022-11-23T12:26:57.635Z,25.42
2022-11-23T12:32:17.013Z,23.85
2022-11-23T12:35:02.793Z,18.55
2022-11-23T12:37:41.059Z,22.92
2022-11-23T12:40:31.989Z,25.50
2022-11-23T12:43:07.683Z,20.63
2022-11-23T12:45:57.794Z,25.90
2022-11-23T12:48:40.571Z,23.95
2022-11-23T12:51:19.203Z,23.45
2022-11-23T12:53:53.136Z,24.60
2022-11-23T12:56:39.074Z,26.75
2022-11-23T12:59:13.714Z,26.65
2022-11-23T13:01:44.750Z,27.52
2022-11-23T13:04:48.104Z,28.08
2022-11-23T13:07:59.729Z,29.00
2022-11-23T13:10:39.103Z,28.42
2022-11-23T13:13:26.513Z,28.10
2022-11-23T13:16:36.123Z,27.67
2022-11-23T13:19:16.087Z,30.88
2022-11-23T13:21:48.679Z,30.70
2022-11-23T13:24:28.852Z,28.00
2022-11-23T13:29:49.765Z,28.55
2022-11-23T13:32:51.440Z,30.58
2022-11-23T13:36:11.362Z,28.73
2022-11-23T13:38:44.627Z,29.55
2022-11-23T13:41:46.671Z,30.20
2022-11-23T13:44:23.314Z,29.52
2022-11-23T13:47:02.472Z,30.08
2022-11-23T13:49:35.789Z,32.72
2022-11-23T13:52:31.956Z,30.55
2022-11-23T13:55:09.322Z,31.50
2022-11-23T13:57:39.499Z,30.05
2022-11-23T14:00:45.373Z,26.37
2022-11-23T14:03:48.548Z,31.20
2022-11-23T14:06:43.030Z,32.22
2022-11-23T14:09:16.054Z,29.25
2022-11-23T14:11:54.357Z,32.65
2022-11-23T14:14:26.559Z,31.98
2022-11-23T14:17:32.670Z,31.42
2022-11-23T14:20:21.507Z,30.65
2022-11-23T14:23:02.409Z,31.65
2022-11-23T14:25:39.999Z,34.30
2022-11-23T14:28:18.070Z,32.58
2022-11-23T14:30:56.342Z,33.30
2022-11-23T14:33:30.950Z,35.35
2022-11-23T14:36:08.010Z,32.60
2022-11-23T14:39:17.273Z,31.05
2022-11-23T14:41:47.312Z,34.10
2022-11-23T14:44:16.384Z,35.85
2022-11-23T14:47:02.814Z,34.15
2022-11-23T14:49:31.928Z,32.72
2022-11-23T14:52:01.281Z,35.20
2022-11-23T14:54:32.463Z,32.97
2022-11-23T14:57:04.116Z,33.00
2022-11-23T14:59:35.302Z,31.98
2022-11-23T15:02:06.642Z,34.28
2022-11-23T15:04:38.662Z,32.22
2022-11-23T15:07:12.311Z,33.58
2022-11-23T15:09:48.139Z,33.63
2022-11-23T15:12:24.913Z,34.38
2022-11-23T15:14:57.374Z,36.55
2022-11-23T15:17:26.810Z,36.75
2022-11-23T15:19:56.388Z,39.70
2022-11-23T15:22:26.823Z,37.47
2022-11-23T15:25:07.207Z,39.88
2022-11-23T15:27:40.354Z,36.75
2022-11-23T15:30:17.334Z,38.45
2022-11-23T15:32:46.199Z,41.20
2022-11-23T15:35:16.150Z,37.30
2022-11-23T15:37:47.623Z,39.50
2022-11-23T15:40:20.397Z,39.47
2022-11-23T15:42:51.349Z,39.40
2022-11-23T15:45:40.322Z,39.10
2022-11-23T15:48:14.555Z,42.22
2022-11-23T15:50:50.748Z,42.10
2022-11-23T15:53:19.865Z,39.70
2022-11-23T15:55:50.755Z,39.25
2022-11-23T15:58:21.442Z,40.55
2022-11-23T16:00:52.400Z,41.67
2022-11-23T16:03:36.334Z,42.80
2022-11-23T16:06:26.937Z,41.92
2022-11-23T16:08:55.764Z,41.33
2022-11-23T16:11:31.696Z,41.75
2022-11-23T16:14:18.674Z,40.05
2022-11-23T16:16:48.388Z,43.15
2022-11-23T16:19:29.342Z,40.70
2022-11-23T16:22:02.540Z,42.17
2022-11-23T16:24:33.747Z,44.58
2022-11-23T16:27:13.482Z,43.60
2022-11-23T16:29:42.363Z,40.90
2022-11-23T16:32:23.353Z,43.30
2022-11-23T16:34:51.756Z,44.08
2022-11-23T16:37:20.935Z,41.92
2022-11-23T16:39:50.117Z,41.22
2022-11-23T16:42:20.423Z,41.53
2022-11-23T16:44:49.319Z,44.28
2022-11-23T16:47:26.316Z,43.05
2022-11-23T16:49:55.536Z,43.15
2022-11-23T16:52:25.066Z,44.05
2022-11-23T16:54:54.021Z,42.28
2022-11-23T16:57:30.204Z,42.47
2022-11-23T16:59:59.618Z,39.33
2022-11-23T17:02:28.483Z,30.93
2022-11-23T17:04:57.052Z,39.45
2022-11-23T17:07:25.975Z,39.72
2022-11-23T17:09:54.695Z,40.65
2022-11-23T17:12:23.513Z,38.72
2022-11-23T17:14:53.655Z,42.10
2022-11-23T17:17:23.710Z,40.45
2022-11-23T17:19:52.715Z,44.13
2022-11-23T17:22:21.970Z,43.40
2022-11-23T17:24:53.373Z,43.22
2022-11-23T17:27:24.325Z,42.50
2022-11-23T17:29:58.548Z,43.17
2022-11-23T17:32:27.316Z,41.08
2022-11-23T17:34:55.892Z,41.50
2022-11-23T17:37:25.489Z,41.72
2022-11-23T17:39:54.457Z,31.63
2022-11-23T17:42:23.147Z,41.10
2022-11-23T17:44:51.960Z,41.03
2022-11-23T17:47:26.123Z,42.53
2022-11-23T17:49:54.646Z,40.75
2022-11-23T17:52:24.066Z,43.08
2022-11-23T17:54:52.873Z,30.90
2022-11-23T17:57:24.484Z,43.13
2022-11-23T17:59:53.894Z,41.08
2022-11-23T18:02:23.950Z,40.83
2022-11-23T18:04:52.392Z,39.13
2022-11-23T18:07:21.304Z,41.25
2022-11-23T18:09:50.508Z,40.10
2022-11-23T18:12:19.420Z,38.97
2022-11-23T18:14:48.443Z,40.50
2022-11-23T18:17:17.301Z,41.05
2022-11-23T18:19:47.183Z,41.78
2022-11-23T18:24:44.864Z,41.42
2022-11-23T18:27:13.851Z,43.10
2022-11-23T18:29:42.698Z,39.25
2022-11-23T18:32:11.474Z,36.92
2022-11-23T18:34:39.846Z,37.88
2022-11-23T18:37:10.133Z,39.22
2022-11-23T18:42:07.259Z,37.67
2022-11-23T18:44:35.882Z,38.67
2022-11-23T18:47:04.616Z,38.17
2022-11-23T18:49:33.190Z,36.72
2022-11-23T18:52:02.045Z,37.63
2022-11-23T18:54:32.165Z,38.13
2022-11-23T18:57:00.888Z,37.65
2022-11-23T18:59:56.254Z,38.28
2022-11-23T19:02:18.267Z,38.22
2022-11-23T19:04:46.715Z,42.30
2022-11-23T19:07:15.741Z,39.30
2022-11-23T19:09:48.931Z,40.15
2022-11-23T19:12:17.841Z,38.33
2022-11-23T19:14:49.809Z,39.03
2022-11-23T19:17:18.796Z,39.50
2022-11-23T19:19:47.244Z,38.35
2022-11-23T19:22:16.190Z,34.00
2022-11-23T19:24:45.271Z,35.25
2022-11-23T19:27:15.468Z,39.20
2022-11-23T19:32:12.974Z,38.50
2022-11-23T19:34:41.364Z,35.95
2022-11-23T19:37:10.126Z,36.72
2022-11-23T19:39:38.886Z,39.05
2022-11-23T19:42:07.706Z,37.20
2022-11-23T19:44:37.806Z,37.13
2022-11-23T19:49:43.882Z,35.10
2022-11-23T19:52:12.650Z,36.65
2022-11-23T19:54:41.362Z,36.15
2022-11-23T19:57:10.088Z,36.85
2022-11-23T19:59:40.355Z,34.53
2022-11-23T20:04:38.285Z,39.63
2022-11-23T20:07:07.202Z,37.67
2022-11-23T20:09:36.074Z,39.22
2022-11-23T20:12:05.260Z,41.00
2022-11-23T20:14:33.939Z,42.47
2022-11-23T20:17:04.017Z,42.03
2022-11-23T20:19:32.660Z,41.90
2022-11-23T20:22:01.619Z,42.35
2022-11-23T20:24:30.428Z,41.35
2022-11-23T20:26:59.072Z,41.53
2022-11-23T20:29:28.138Z,40.55
2022-11-23T20:31:56.544Z,40.63
2022-11-23T20:34:27.492Z,40.85
2022-11-23T20:36:56.221Z,42.63
2022-11-23T20:39:24.903Z,42.63
2022-11-23T20:41:53.647Z,41.13
2022-11-23T20:44:24.449Z,39.15
2022-11-23T20:47:03.285Z,37.85
2022-11-23T20:49:33.850Z,41.13
2022-11-23T20:54:32.264Z,40.42
2022-11-23T20:57:01.330Z,38.92
2022-11-23T20:59:30.224Z,43.25
2022-11-23T21:01:59.125Z,42.15
2022-11-23T21:04:27.638Z,41.30
2022-11-23T21:06:58.031Z,38.45
2022-11-23T21:09:26.743Z,40.22
2022-11-23T21:12:12.951Z,40.72
2022-11-23T21:14:41.743Z,37.53
2022-11-23T21:17:10.531Z,40.50
2022-11-23T21:19:40.950Z,37.67
2022-11-23T21:22:12.821Z,35.67
2022-11-23T21:24:42.225Z,37.15
2022-11-23T21:27:13.841Z,37.38
2022-11-23T21:29:44.192Z,37.20
2022-11-23T21:32:14.882Z,34.33
2022-11-23T21:34:43.270Z,31.77
2022-11-23T21:37:13.865Z,32.85
2022-11-23T21:39:44.635Z,34.50
2022-11-23T21:42:17.032Z,34.15
2022-11-23T21:44:45.940Z,34.40
2022-11-23T21:47:14.725Z,37.95
2022-11-23T21:49:43.060Z,40.38
2022-11-23T21:52:13.324Z,33.92
2022-11-23T21:57:17.778Z,37.90
2022-11-23T21:59:46.615Z,36.53
2022-11-23T22:02:15.448Z,35.85
2022-11-23T22:04:44.041Z,36.83
2022-11-23T22:07:14.228Z,35.45
2022-11-23T22:12:11.265Z,34.10
2022-11-23T22:14:39.953Z,34.78
2022-11-23T22:17:08.595Z,37.70
2022-11-23T22:19:36.994Z,36.42
2022-11-23T22:22:07.543Z,35.53
2022-11-23T22:24:38.199Z,36.45
2022-11-23T22:27:06.891Z,34.13
2022-11-23T22:29:35.770Z,34.90
2022-11-23T22:32:04.534Z,37.75
2022-11-23T22:34:33.640Z,33.05
2022-11-23T22:37:07.233Z,32.53
2022-11-23T22:39:40.701Z,32.70
2022-11-23T22:44:39.576Z,30.90
2022-11-23T22:47:08.338Z,30.58
2022-11-23T22:49:37.031Z,32.30
2022-11-23T22:52:06.079Z,32.67
2022-11-23T22:54:35.075Z,30.65
2022-11-23T22:57:05.379Z,30.45
2022-11-23T22:59:34.270Z,31.55
2022-11-23T23:02:03.161Z,31.75
2022-11-23T23:04:31.832Z,28.75
2022-11-23T23:07:00.985Z,29.55
2022-11-23T23:09:29.834Z,30.90
2022-11-23T23:11:58.692Z,32.72
2022-11-23T23:14:28.870Z,33.10
2022-11-23T23:16:57.322Z,29.65
2022-11-23T23:19:26.031Z,30.83
2022-11-23T23:21:54.739Z,28.38
2022-11-23T23:24:23.517Z,30.38
2022-11-23T23:26:52.344Z,30.55
2022-11-23T23:29:21.078Z,30.60
2022-11-23T23:31:51.099Z,29.20
2022-11-23T23:34:19.964Z,27.77
2022-11-23T23:36:48.666Z,27.58
2022-11-23T23:39:17.535Z,29.55
2022-11-23T23:41:46.414Z,28.70
2022-11-23T23:44:15.288Z,28.13
2022-11-23T23:46:44.693Z,27.67
2022-11-23T23:49:14.817Z,26.33
2022-11-23T23:54:17.596Z,25.88
2022-11-23T23:56:46.341Z,24.92
2022-11-23T23:59:15.206Z,26.60
